sensor_id;sensor_type;location;lat;lon;timestamp;pressure;altitude;pressure_sealevel;temperature;humidity
18819;BME280;9537;45.594;9.294;2023-04-24T00:01:04;98762.00;;;15.69;83.61
18819;BME280;9537;45.594;9.294;2023-04-24T00:02:12;98765.47;;;15.69;83.57
18819;BME280;9537;45.594;9.294;2023-04-24T00:03:19;98761.56;;;15.72;83.70
18819;BME280;9537;45.594;9.294;2023-04-24T00:04:26;98756.22;;;15.72;83.71
18819;BME280;9537;45.594;9.294;2023-04-24T00:05:33;98751.72;;;15.72;83.58
18819;BME280;9537;45.594;9.294;2023-04-24T00:06:39;98753.31;;;15.73;84.18
18819;BME280;9537;45.594;9.294;2023-04-24T00:07:48;98750.44;;;15.75;84.35
18819;BME280;9537;45.594;9.294;2023-04-24T00:08:54;98758.19;;;15.76;84.52
18819;BME280;9537;45.594;9.294;2023-04-24T00:10:01;98759.25;;;15.75;84.59
18819;BME280;9537;45.594;9.294;2023-04-24T00:11:08;98753.91;;;15.75;84.36
18819;BME280;9537;45.594;9.294;2023-04-24T00:12:15;98756.56;;;15.75;84.26
18819;BME280;9537;45.594;9.294;2023-04-24T00:13:21;98759.25;;;15.75;83.71
18819;BME280;9537;45.594;9.294;2023-04-24T00:14:27;98758.44;;;15.75;82.65
18819;BME280;9537;45.594;9.294;2023-04-24T00:15:35;98767.22;;;15.75;82.74
18819;BME280;9537;45.594;9.294;2023-04-24T00:16:42;98754.97;;;15.74;82.57
18819;BME280;9537;45.594;9.294;2023-04-24T00:17:48;98762.94;;;15.74;82.14
18819;BME280;9537;45.594;9.294;2023-04-24T00:18:55;98748.59;;;15.75;82.27
18819;BME280;9537;45.594;9.294;2023-04-24T00:20:01;98751.25;;;15.75;82.31
18819;BME280;9537;45.594;9.294;2023-04-24T00:21:10;98746.63;;;15.71;82.92
18819;BME280;9537;45.594;9.294;2023-04-24T00:22:16;98751.50;;;15.74;83.28
18819;BME280;9537;45.594;9.294;2023-04-24T00:23:24;98758.09;;;15.71;83.53
18819;BME280;9537;45.594;9.294;2023-04-24T00:24:30;98748.44;;;15.70;84.18
18819;BME280;9537;45.594;9.294;2023-04-24T00:25:37;98751.94;;;15.71;84.61
18819;BME280;9537;45.594;9.294;2023-04-24T00:26:43;98762.19;;;15.67;85.09
18819;BME280;9537;45.594;9.294;2023-04-24T00:27:50;98756.72;;;15.62;85.32
18819;BME280;9537;45.594;9.294;2023-04-24T00:28:56;98760.44;;;15.61;85.72
18819;BME280;9537;45.594;9.294;2023-04-24T00:30:04;98755.13;;;15.61;85.80
18819;BME280;9537;45.594;9.294;2023-04-24T00:31:12;98754.53;;;15.59;86.25
18819;BME280;9537;45.594;9.294;2023-04-24T00:32:19;98760.69;;;15.60;86.13
18819;BME280;9537;45.594;9.294;2023-04-24T00:33:25;98753.72;;;15.59;85.85
18819;BME280;9537;45.594;9.294;2023-04-24T00:34:32;98750.25;;;15.58;85.79
18819;BME280;9537;45.594;9.294;2023-04-24T00:35:38;98746.53;;;15.59;85.95
18819;BME280;9537;45.594;9.294;2023-04-24T00:36:45;98749.19;;;15.59;85.67
18819;BME280;9537;45.594;9.294;2023-04-24T00:37:51;98749.31;;;15.52;85.88
18819;BME280;9537;45.594;9.294;2023-04-24T00:38:58;98743.06;;;15.59;85.20
18819;BME280;9537;45.594;9.294;2023-04-24T00:40:05;98744.34;;;15.56;85.31
18819;BME280;9537;45.594;9.294;2023-04-24T00:41:12;98739.72;;;15.51;85.38
18819;BME280;9537;45.594;9.294;2023-04-24T00:42:18;98750.56;;;15.50;85.79
18819;BME280;9537;45.594;9.294;2023-04-24T00:43:26;98741.56;;;15.51;85.36
18819;BME280;9537;45.594;9.294;2023-04-24T00:44:27;98742.00;;;15.48;85.54
18819;BME280;9537;45.594;9.294;2023-04-24T00:45:34;98737.84;;;15.52;85.86
18819;BME280;9537;45.594;9.294;2023-04-24T00:46:42;98744.66;;;15.48;85.99
18819;BME280;9537;45.594;9.294;2023-04-24T00:47:49;98744.66;;;15.48;86.12
18819;BME280;9537;45.594;9.294;2023-04-24T00:48:52;98749.16;;;15.47;86.00
18819;BME280;9537;45.594;9.294;2023-04-24T00:50:01;98746.66;;;15.52;86.28
18819;BME280;9537;45.594;9.294;2023-04-24T00:51:08;98747.22;;;15.43;87.37
18819;BME280;9537;45.594;9.294;2023-04-24T00:52:15;98746.97;;;15.44;87.65
18819;BME280;9537;45.594;9.294;2023-04-24T00:53:23;98741.28;;;15.41;87.91
18819;BME280;9537;45.594;9.294;2023-04-24T00:54:30;98739.22;;;15.43;87.38
18819;BME280;9537;45.594;9.294;2023-04-24T00:55:36;98738.84;;;15.39;87.49
18819;BME280;9537;45.594;9.294;2023-04-24T00:56:44;98739.69;;;15.40;87.24
18819;BME280;9537;45.594;9.294;2023-04-24T00:57:50;98733.91;;;15.43;86.66
18819;BME280;9537;45.594;9.294;2023-04-24T00:58:57;98730.66;;;15.41;87.03
18819;BME280;9537;45.594;9.294;2023-04-24T01:00:06;98728.19;;;15.39;87.35
18819;BME280;9537;45.594;9.294;2023-04-24T01:01:16;98726.38;;;15.40;87.29
18819;BME280;9537;45.594;9.294;2023-04-24T01:02:25;98733.75;;;15.38;87.52
18819;BME280;9537;45.594;9.294;2023-04-24T01:03:29;98729.03;;;15.40;86.99
18819;BME280;9537;45.594;9.294;2023-04-24T01:04:36;98726.13;;;15.41;87.14
18819;BME280;9537;45.594;9.294;2023-04-24T01:05:43;98730.06;;;15.39;86.74
18819;BME280;9537;45.594;9.294;2023-04-24T01:06:50;98720.22;;;15.39;86.84
18819;BME280;9537;45.594;9.294;2023-04-24T01:07:57;98726.59;;;15.38;86.86
18819;BME280;9537;45.594;9.294;2023-04-24T01:09:04;98731.09;;;15.38;87.05
18819;BME280;9537;45.594;9.294;2023-04-24T01:10:13;98722.31;;;15.37;87.12
18819;BME280;9537;45.594;9.294;2023-04-24T01:11:20;98721.13;;;15.33;87.38
18819;BME280;9537;45.594;9.294;2023-04-24T01:12:28;98724.53;;;15.40;86.99
18819;BME280;9537;45.594;9.294;2023-04-24T01:13:34;98724.72;;;15.39;87.38
18819;BME280;9537;45.594;9.294;2023-04-24T01:14:41;98722.88;;;15.39;87.53
18819;BME280;9537;45.594;9.294;2023-04-24T01:15:48;98719.41;;;15.39;87.87
18819;BME280;9537;45.594;9.294;2023-04-24T01:16:55;98719.41;;;15.39;87.92
18819;BME280;9537;45.594;9.294;2023-04-24T01:18:05;98721.28;;;15.38;88.11
18819;BME280;9537;45.594;9.294;2023-04-24T01:19:12;98715.13;;;15.38;87.49
18819;BME280;9537;45.594;9.294;2023-04-24T01:20:20;98718.84;;;15.37;87.83
18819;BME280;9537;45.594;9.294;2023-04-24T01:21:23;98719.06;;;15.35;87.94
18819;BME280;9537;45.594;9.294;2023-04-24T01:22:34;98725.44;;;15.34;87.87
18819;BME280;9537;45.594;9.294;2023-04-24T01:23:41;98716.06;;;15.31;87.70
18819;BME280;9537;45.594;9.294;2023-04-24T01:24:48;98708.63;;;15.33;87.76
18819;BME280;9537;45.594;9.294;2023-04-24T01:25:55;98711.28;;;15.33;87.87
18819;BME280;9537;45.594;9.294;2023-04-24T01:27:01;98706.56;;;15.36;87.95
18819;BME280;9537;45.594;9.294;2023-04-24T01:28:08;98709.22;;;15.36;88.25
18819;BME280;9537;45.594;9.294;2023-04-24T01:29:14;98707.38;;;15.36;88.38
18819;BME280;9537;45.594;9.294;2023-04-24T01:30:21;98707.38;;;15.36;88.70
18819;BME280;9537;45.594;9.294;2023-04-24T01:31:28;98706.56;;;15.36;89.17
18819;BME280;9537;45.594;9.294;2023-04-24T01:32:36;98699.03;;;15.32;89.10
18819;BME280;9537;45.594;9.294;2023-04-24T01:33:42;98699.63;;;15.35;89.22
18819;BME280;9537;45.594;9.294;2023-04-24T01:34:50;98701.34;;;15.29;88.93
18819;BME280;9537;45.594;9.294;2023-04-24T01:35:52;98701.56;;;15.27;88.88
18819;BME280;9537;45.594;9.294;2023-04-24T01:36:59;98705.88;;;15.28;89.00
18819;BME280;9537;45.594;9.294;2023-04-24T01:38:06;98701.09;;;15.30;88.63
18819;BME280;9537;45.594;9.294;2023-04-24T01:39:13;98697.63;;;15.30;88.54
18819;BME280;9537;45.594;9.294;2023-04-24T01:40:21;98702.16;;;15.29;88.80
18819;BME280;9537;45.594;9.294;2023-04-24T01:41:23;98697.63;;;15.30;88.62
18819;BME280;9537;45.594;9.294;2023-04-24T01:42:29;98689.44;;;15.31;88.67
18819;BME280;9537;45.594;9.294;2023-04-24T01:43:37;98685.75;;;15.32;88.55
18819;BME280;9537;45.594;9.294;2023-04-24T01:44:43;98685.97;;;15.31;88.44
18819;BME280;9537;45.594;9.294;2023-04-24T01:45:50;98675.56;;;15.29;88.68
18819;BME280;9537;45.594;9.294;2023-04-24T01:46:56;98678.00;;;15.31;88.63
18819;BME280;9537;45.594;9.294;2023-04-24T01:48:03;98678.22;;;15.29;89.03
18819;BME280;9537;45.594;9.294;2023-04-24T01:49:09;98677.63;;;15.27;89.24
18819;BME280;9537;45.594;9.294;2023-04-24T01:50:16;98682.94;;;15.27;89.26
18819;BME280;9537;45.594;9.294;2023-04-24T01:51:23;98689.31;;;15.26;89.44
18819;BME280;9537;45.594;9.294;2023-04-24T01:52:29;98694.63;;;15.26;89.55
18819;BME280;9537;45.594;9.294;2023-04-24T01:53:40;98696.69;;;15.24;89.20
18819;BME280;9537;45.594;9.294;2023-04-24T01:54:47;98695.88;;;15.24;89.16
18819;BME280;9537;45.594;9.294;2023-04-24T01:55:53;98697.50;;;15.25;88.86
18819;BME280;9537;45.594;9.294;2023-04-24T01:57:00;98696.69;;;15.24;89.33
18819;BME280;9537;45.594;9.294;2023-04-24T01:58:06;98690.56;;;15.24;89.24
18819;BME280;9537;45.594;9.294;2023-04-24T01:59:14;98693.09;;;15.19;89.12
18819;BME280;9537;45.594;9.294;2023-04-24T02:00:22;98681.06;;;15.16;88.82
18819;BME280;9537;45.594;9.294;2023-04-24T02:01:34;98681.06;;;15.16;89.13
18819;BME280;9537;45.594;9.294;2023-04-24T02:02:41;98681.06;;;15.16;89.51
18819;BME280;9537;45.594;9.294;2023-04-24T02:03:48;98673.44;;;15.20;89.56
18819;BME280;9537;45.594;9.294;2023-04-24T02:04:54;98682.69;;;15.17;89.60
18819;BME280;9537;45.594;9.294;2023-04-24T02:06:01;98675.28;;;15.19;89.85
18819;BME280;9537;45.594;9.294;2023-04-24T02:07:07;98681.44;;;15.20;89.70
18819;BME280;9537;45.594;9.294;2023-04-24T02:08:14;98680.38;;;15.21;89.78
18819;BME280;9537;45.594;9.294;2023-04-24T02:09:22;98680.59;;;15.19;90.12
18819;BME280;9537;45.594;9.294;2023-04-24T02:10:28;98688.81;;;15.18;90.36
18819;BME280;9537;45.594;9.294;2023-04-24T02:11:34;98694.13;;;15.18;90.21
18819;BME280;9537;45.594;9.294;2023-04-24T02:12:41;98692.28;;;15.18;90.10
18819;BME280;9537;45.594;9.294;2023-04-24T02:13:47;98690.06;;;15.15;89.91
18819;BME280;9537;45.594;9.294;2023-04-24T02:14:54;98693.78;;;15.14;90.13
18819;BME280;9537;45.594;9.294;2023-04-24T02:16:00;98694.59;;;15.15;90.24
18819;BME280;9537;45.594;9.294;2023-04-24T02:17:07;98684.75;;;15.15;90.38
18819;BME280;9537;45.594;9.294;2023-04-24T02:18:12;98690.28;;;15.14;90.34
18819;BME280;9537;45.594;9.294;2023-04-24T02:19:21;98687.88;;;15.12;90.03
18819;BME280;9537;45.594;9.294;2023-04-24T02:20:27;98689.28;;;15.15;90.09
18819;BME280;9537;45.594;9.294;2023-04-24T02:21:34;98688.47;;;15.14;90.10
18819;BME280;9537;45.594;9.294;2023-04-24T02:22:40;98684.75;;;15.15;90.13
18819;BME280;9537;45.594;9.294;2023-04-24T02:23:47;98677.81;;;15.14;90.35
18819;BME280;9537;45.594;9.294;2023-04-24T02:24:54;98679.66;;;15.14;90.79
18819;BME280;9537;45.594;9.294;2023-04-24T02:26:01;98675.16;;;15.14;90.71
18819;BME280;9537;45.594;9.294;2023-04-24T02:27:07;98678.41;;;15.16;90.65
18819;BME280;9537;45.594;9.294;2023-04-24T02:28:15;98673.91;;;15.17;90.37
18819;BME280;9537;45.594;9.294;2023-04-24T02:29:22;98677.59;;;15.16;90.21
18819;BME280;9537;45.594;9.294;2023-04-24T02:30:28;98667.53;;;15.18;90.11
18819;BME280;9537;45.594;9.294;2023-04-24T02:31:36;98676.31;;;15.18;89.86
18819;BME280;9537;45.594;9.294;2023-04-24T02:32:42;98671.25;;;15.17;89.90
18819;BME280;9537;45.594;9.294;2023-04-24T02:33:49;98668.66;;;15.10;90.14
18819;BME280;9537;45.594;9.294;2023-04-24T02:34:55;98669.25;;;15.12;90.67
18819;BME280;9537;45.594;9.294;2023-04-24T02:36:02;98665.19;;;15.09;90.64
18819;BME280;9537;45.594;9.294;2023-04-24T02:37:08;98672.22;;;15.04;91.17
18819;BME280;9537;45.594;9.294;2023-04-24T02:38:15;98660.34;;;15.06;90.92
18819;BME280;9537;45.594;9.294;2023-04-24T02:39:21;98661.72;;;15.09;90.78
18819;BME280;9537;45.594;9.294;2023-04-24T02:40:24;98658.84;;;15.10;90.80
18819;BME280;9537;45.594;9.294;2023-04-24T02:41:30;98657.56;;;15.13;90.80
18819;BME280;9537;45.594;9.294;2023-04-24T02:42:38;98662.31;;;15.11;90.54
18819;BME280;9537;45.594;9.294;2023-04-24T02:43:44;98656.16;;;15.10;90.50
18819;BME280;9537;45.594;9.294;2023-04-24T02:44:51;98654.56;;;15.09;90.42
18819;BME280;9537;45.594;9.294;2023-04-24T02:45:57;98653.31;;;15.12;90.42
18819;BME280;9537;45.594;9.294;2023-04-24T02:47:04;98647.19;;;15.12;90.69
18819;BME280;9537;45.594;9.294;2023-04-24T02:48:10;98655.16;;;15.12;90.51
18819;BME280;9537;45.594;9.294;2023-04-24T02:49:17;98654.34;;;15.11;90.54
18819;BME280;9537;45.594;9.294;2023-04-24T02:50:23;98652.72;;;15.10;90.25
18819;BME280;9537;45.594;9.294;2023-04-24T02:51:30;98643.91;;;15.09;90.56
18819;BME280;9537;45.594;9.294;2023-04-24T02:52:37;98643.91;;;15.09;90.31
18819;BME280;9537;45.594;9.294;2023-04-24T02:53:43;98652.94;;;15.08;90.47
18819;BME280;9537;45.594;9.294;2023-04-24T02:54:50;98647.84;;;15.07;90.20
18819;BME280;9537;45.594;9.294;2023-04-24T02:55:57;98641.94;;;15.05;90.39
18819;BME280;9537;45.594;9.294;2023-04-24T02:57:04;98645.63;;;15.04;90.13
18819;BME280;9537;45.594;9.294;2023-04-24T02:58:11;98645.03;;;15.02;90.65
18819;BME280;9537;45.594;9.294;2023-04-24T02:59:19;98641.56;;;15.01;90.78
18819;BME280;9537;45.594;9.294;2023-04-24T03:00:25;98647.69;;;15.02;90.59
18819;BME280;9537;45.594;9.294;2023-04-24T03:01:31;98647.69;;;15.02;90.22
18819;BME280;9537;45.594;9.294;2023-04-24T03:02:37;98641.56;;;15.01;90.36
18819;BME280;9537;45.594;9.294;2023-04-24T03:03:44;98642.28;;;14.97;90.19
18819;BME280;9537;45.594;9.294;2023-04-24T03:04:50;98641.09;;;14.93;90.61
18819;BME280;9537;45.594;9.294;2023-04-24T03:05:57;98637.97;;;14.96;90.46
18819;BME280;9537;45.594;9.294;2023-04-24T03:07:04;98634.75;;;14.94;90.48
18819;BME280;9537;45.594;9.294;2023-04-24T03:08:11;98636.38;;;14.95;90.20
18819;BME280;9537;45.594;9.294;2023-04-24T03:09:17;98638.22;;;14.94;90.46
18819;BME280;9537;45.594;9.294;2023-04-24T03:10:24;98639.47;;;14.92;90.28
18819;BME280;9537;45.594;9.294;2023-04-24T03:11:31;98639.47;;;14.92;90.41
18819;BME280;9537;45.594;9.294;2023-04-24T03:12:38;98635.63;;;14.87;90.62
18819;BME280;9537;45.594;9.294;2023-04-24T03:13:44;98643.03;;;14.85;90.89
18819;BME280;9537;45.594;9.294;2023-04-24T03:14:51;98639.78;;;14.83;90.58
18819;BME280;9537;45.594;9.294;2023-04-24T03:15:57;98643.69;;;14.81;91.02
18819;BME280;9537;45.594;9.294;2023-04-24T03:17:05;98642.31;;;14.78;90.87
18819;BME280;9537;45.594;9.294;2023-04-24T03:18:11;98635.03;;;14.74;90.91
18819;BME280;9537;45.594;9.294;2023-04-24T03:19:17;98635.59;;;14.76;90.98
18819;BME280;9537;45.594;9.294;2023-04-24T03:20:24;98636.38;;;14.76;90.93
18819;BME280;9537;45.594;9.294;2023-04-24T03:21:31;98636.38;;;14.76;90.59
18819;BME280;9537;45.594;9.294;2023-04-24T03:22:38;98624.75;;;14.77;90.46
18819;BME280;9537;45.594;9.294;2023-04-24T03:23:44;98629.47;;;14.75;90.95
18819;BME280;9537;45.594;9.294;2023-04-24T03:24:51;98617.78;;;14.76;90.97
18819;BME280;9537;45.594;9.294;2023-04-24T03:25:52;98620.44;;;14.76;90.67
18819;BME280;9537;45.594;9.294;2023-04-24T03:27:01;98613.31;;;14.77;90.55
18819;BME280;9537;45.594;9.294;2023-04-24T03:28:07;98620.44;;;14.76;90.40
18819;BME280;9537;45.594;9.294;2023-04-24T03:29:14;98622.28;;;14.76;90.50
18819;BME280;9537;45.594;9.294;2023-04-24T03:30:20;98612.47;;;14.76;90.27
18819;BME280;9537;45.594;9.294;2023-04-24T03:31:27;98618.22;;;14.73;89.71
18819;BME280;9537;45.594;9.294;2023-04-24T03:32:34;98618.13;;;14.68;89.17
18819;BME280;9537;45.594;9.294;2023-04-24T03:33:41;98621.00;;;14.67;89.76
18819;BME280;9537;45.594;9.294;2023-04-24T03:34:49;98627.56;;;14.64;90.00
18819;BME280;9537;45.594;9.294;2023-04-24T03:35:55;98623.50;;;14.61;89.58
18819;BME280;9537;45.594;9.294;2023-04-24T03:37:02;98623.75;;;14.60;89.29
18819;BME280;9537;45.594;9.294;2023-04-24T03:38:09;98620.13;;;14.54;89.67
18819;BME280;9537;45.594;9.294;2023-04-24T03:39:16;98621.38;;;14.52;89.94
18819;BME280;9537;45.594;9.294;2023-04-24T03:40:23;98625.06;;;14.51;90.31
18819;BME280;9537;45.594;9.294;2023-04-24T03:41:29;98629.34;;;14.52;90.25
18819;BME280;9537;45.594;9.294;2023-04-24T03:42:38;98626.69;;;14.52;90.09
18819;BME280;9537;45.594;9.294;2023-04-24T03:43:43;98628.72;;;14.50;89.78
18819;BME280;9537;45.594;9.294;2023-04-24T03:44:50;98627.13;;;14.49;90.00
18819;BME280;9537;45.594;9.294;2023-04-24T03:45:56;98630.44;;;14.44;89.94
18819;BME280;9537;45.594;9.294;2023-04-24T03:46:58;98633.09;;;14.44;90.15
18819;BME280;9537;45.594;9.294;2023-04-24T03:48:04;98633.09;;;14.44;90.06
18819;BME280;9537;45.594;9.294;2023-04-24T03:49:11;98640.47;;;14.42;90.35
18819;BME280;9537;45.594;9.294;2023-04-24T03:50:17;98632.28;;;14.43;90.73
18819;BME280;9537;45.594;9.294;2023-04-24T03:51:24;98626.38;;;14.41;90.19
18819;BME280;9537;45.594;9.294;2023-04-24T03:52:25;98630.72;;;14.36;90.07
18819;BME280;9537;45.594;9.294;2023-04-24T03:53:32;98630.72;;;14.36;89.99
18819;BME280;9537;45.594;9.294;2023-04-24T03:54:38;98636.28;;;14.34;89.76
18819;BME280;9537;45.594;9.294;2023-04-24T03:55:45;98636.28;;;14.34;89.54
18819;BME280;9537;45.594;9.294;2023-04-24T03:56:51;98637.53;;;14.32;89.29
18819;BME280;9537;45.594;9.294;2023-04-24T03:57:59;98634.88;;;14.32;89.13
18819;BME280;9537;45.594;9.294;2023-04-24T03:59:06;98637.28;;;14.33;89.46
18819;BME280;9537;45.594;9.294;2023-04-24T04:00:14;98641.59;;;14.34;89.04
18819;BME280;9537;45.594;9.294;2023-04-24T04:01:20;98632.31;;;14.25;89.83
18819;BME280;9537;45.594;9.294;2023-04-24T04:02:27;98644.53;;;14.26;90.01
18819;BME280;9537;45.594;9.294;2023-04-24T04:03:33;98641.44;;;14.29;89.75
18819;BME280;9537;45.594;9.294;2023-04-24T04:04:40;98639.00;;;14.28;90.01
18819;BME280;9537;45.594;9.294;2023-04-24T04:05:46;98640.84;;;14.27;89.80
18819;BME280;9537;45.594;9.294;2023-04-24T04:06:53;98640.03;;;14.27;89.97
18819;BME280;9537;45.594;9.294;2023-04-24T04:07:59;98637.63;;;14.25;90.11
18819;BME280;9537;45.594;9.294;2023-04-24T04:09:06;98639.66;;;14.23;89.47
18819;BME280;9537;45.594;9.294;2023-04-24T04:10:12;98636.22;;;14.23;89.33
18819;BME280;9537;45.594;9.294;2023-04-24T04:11:19;98649.09;;;14.19;88.83
18819;BME280;9537;45.594;9.294;2023-04-24T04:12:25;98648.09;;;14.20;88.74
18819;BME280;9537;45.594;9.294;2023-04-24T04:13:34;98648.28;;;14.18;87.89
18819;BME280;9537;45.594;9.294;2023-04-24T04:14:40;98649.53;;;14.16;88.30
18819;BME280;9537;45.594;9.294;2023-04-24T04:15:47;98648.72;;;14.15;88.12
18819;BME280;9537;45.594;9.294;2023-04-24T04:16:53;98654.28;;;14.14;88.11
18819;BME280;9537;45.594;9.294;2023-04-24T04:18:00;98651.63;;;14.14;88.54
18819;BME280;9537;45.594;9.294;2023-04-24T04:19:06;98650.78;;;14.13;88.11
18819;BME280;9537;45.594;9.294;2023-04-24T04:20:13;98651.22;;;14.10;88.28
18819;BME280;9537;45.594;9.294;2023-04-24T04:21:19;98652.06;;;14.11;88.35
18819;BME280;9537;45.594;9.294;2023-04-24T04:22:26;98652.06;;;14.11;88.52
18819;BME280;9537;45.594;9.294;2023-04-24T04:23:32;98653.88;;;14.10;87.99
18819;BME280;9537;45.594;9.294;2023-04-24T04:24:39;98652.88;;;14.11;87.98
18819;BME280;9537;45.594;9.294;2023-04-24T04:25:46;98650.41;;;14.10;87.49
18819;BME280;9537;45.594;9.294;2023-04-24T04:26:53;98653.06;;;14.10;87.28
18819;BME280;9537;45.594;9.294;2023-04-24T04:28:02;98649.63;;;14.09;87.08
18819;BME280;9537;45.594;9.294;2023-04-24T04:29:10;98647.16;;;14.08;86.69
18819;BME280;9537;45.594;9.294;2023-04-24T04:30:16;98643.94;;;14.06;86.62
18819;BME280;9537;45.594;9.294;2023-04-24T04:31:23;98646.00;;;14.04;86.19
18819;BME280;9537;45.594;9.294;2023-04-24T04:32:30;98648.94;;;13.95;86.40
18819;BME280;9537;45.594;9.294;2023-04-24T04:33:38;98651.22;;;13.92;85.91
18819;BME280;9537;45.594;9.294;2023-04-24T04:34:45;98660.22;;;13.91;86.28
18819;BME280;9537;45.594;9.294;2023-04-24T04:35:52;98654.50;;;13.87;86.57
18819;BME280;9537;45.594;9.294;2023-04-24T04:36:58;98650.88;;;13.82;86.94
18819;BME280;9537;45.594;9.294;2023-04-24T04:38:07;98655.19;;;13.83;86.98
18819;BME280;9537;45.594;9.294;2023-04-24T04:39:13;98654.38;;;13.82;87.08
18819;BME280;9537;45.594;9.294;2023-04-24T04:40:22;98653.78;;;13.80;87.19
18819;BME280;9537;45.594;9.294;2023-04-24T04:41:28;98658.28;;;13.80;87.09
18819;BME280;9537;45.594;9.294;2023-04-24T04:42:36;98660.94;;;13.80;87.28
18819;BME280;9537;45.594;9.294;2023-04-24T04:43:45;98663.34;;;13.81;87.46
18819;BME280;9537;45.594;9.294;2023-04-24T04:44:54;98665.19;;;13.81;87.73
18819;BME280;9537;45.594;9.294;2023-04-24T04:45:57;98671.13;;;13.83;87.66
18819;BME280;9537;45.594;9.294;2023-04-24T04:47:45;98666.44;;;13.78;87.27
18819;BME280;9537;45.594;9.294;2023-04-24T04:48:52;98664.59;;;13.79;87.42
18819;BME280;9537;45.594;9.294;2023-04-24T04:49:59;98668.50;;;13.76;87.27
18819;BME280;9537;45.594;9.294;2023-04-24T04:51:05;98665.84;;;13.76;87.74
18819;BME280;9537;45.594;9.294;2023-04-24T04:52:12;98667.50;;;13.77;87.31
18819;BME280;9537;45.594;9.294;2023-04-24T04:53:18;98668.06;;;13.79;87.71
18819;BME280;9537;45.594;9.294;2023-04-24T04:54:25;98675.44;;;13.77;87.38
18819;BME280;9537;45.594;9.294;2023-04-24T04:55:32;98668.72;;;13.74;87.16
18819;BME280;9537;45.594;9.294;2023-04-24T04:56:38;98677.28;;;13.77;87.01
18819;BME280;9537;45.594;9.294;2023-04-24T04:57:40;98681.19;;;13.74;86.70
18819;BME280;9537;45.594;9.294;2023-04-24T04:58:46;98679.78;;;13.71;87.13
18819;BME280;9537;45.594;9.294;2023-04-24T04:59:54;98679.97;;;13.70;87.35
18819;BME280;9537;45.594;9.294;2023-04-24T05:01:01;98684.72;;;13.68;87.30
18819;BME280;9537;45.594;9.294;2023-04-24T05:02:08;98683.94;;;13.61;87.51
18819;BME280;9537;45.594;9.294;2023-04-24T05:03:14;98692.94;;;13.60;87.31
18819;BME280;9537;45.594;9.294;2023-04-24T05:04:21;98690.72;;;13.57;87.29
18819;BME280;9537;45.594;9.294;2023-04-24T05:05:27;98690.72;;;13.57;87.02
18819;BME280;9537;45.594;9.294;2023-04-24T05:06:34;98697.63;;;13.58;87.37
18819;BME280;9537;45.594;9.294;2023-04-24T05:07:40;98698.69;;;13.57;87.39
18819;BME280;9537;45.594;9.294;2023-04-24T05:08:42;98697.44;;;13.59;87.30
18819;BME280;9537;45.594;9.294;2023-04-24T05:09:48;98700.09;;;13.59;87.34
18819;BME280;9537;45.594;9.294;2023-04-24T05:10:57;98699.66;;;13.62;87.12
18819;BME280;9537;45.594;9.294;2023-04-24T05:12:04;98694.34;;;13.62;86.68
18819;BME280;9537;45.594;9.294;2023-04-24T05:13:05;98692.94;;;13.60;86.80
18819;BME280;9537;45.594;9.294;2023-04-24T05:14:12;98692.53;;;13.56;86.94
18819;BME280;9537;45.594;9.294;2023-04-24T05:15:19;98689.75;;;13.51;86.91
18819;BME280;9537;45.594;9.294;2023-04-24T05:16:26;98688.91;;;13.50;87.41
18819;BME280;9537;45.594;9.294;2023-04-24T05:17:32;98694.19;;;13.50;87.38
18819;BME280;9537;45.594;9.294;2023-04-24T05:18:39;98699.38;;;13.45;87.50
18819;BME280;9537;45.594;9.294;2023-04-24T05:19:46;98705.25;;;13.47;86.89
18819;BME280;9537;45.594;9.294;2023-04-24T05:20:52;98700.78;;;13.48;86.61
18819;BME280;9537;45.594;9.294;2023-04-24T05:21:59;98702.81;;;13.46;86.11
18819;BME280;9537;45.594;9.294;2023-04-24T05:23:04;98700.97;;;13.46;86.38
18819;BME280;9537;45.594;9.294;2023-04-24T05:24:11;98700.56;;;13.49;86.52
18819;BME280;9537;45.594;9.294;2023-04-24T05:25:17;98703.00;;;13.51;86.71
18819;BME280;9537;45.594;9.294;2023-04-24T05:26:25;98697.47;;;13.52;87.04
18819;BME280;9537;45.594;9.294;2023-04-24T05:27:31;98703.56;;;13.53;86.89
18819;BME280;9537;45.594;9.294;2023-04-24T05:28:38;98696.47;;;13.54;87.08
18819;BME280;9537;45.594;9.294;2023-04-24T05:29:43;98702.34;;;13.56;87.32
18819;BME280;9537;45.594;9.294;2023-04-24T05:30:52;98704.78;;;13.57;88.13
18819;BME280;9537;45.594;9.294;2023-04-24T05:31:58;98706.19;;;13.60;88.32
18819;BME280;9537;45.594;9.294;2023-04-24T05:33:06;98712.31;;;13.60;88.30
18819;BME280;9537;45.594;9.294;2023-04-24T05:34:12;98709.66;;;13.60;87.96
18819;BME280;9537;45.594;9.294;2023-04-24T05:35:19;98702.31;;;13.62;88.38
18819;BME280;9537;45.594;9.294;2023-04-24T05:36:26;98706.78;;;13.62;87.82
18819;BME280;9537;45.594;9.294;2023-04-24T05:37:33;98703.13;;;13.63;87.44
18819;BME280;9537;45.594;9.294;2023-04-24T05:38:39;98703.94;;;13.63;87.59
18819;BME280;9537;45.594;9.294;2023-04-24T05:39:45;98705.53;;;13.64;87.38
18819;BME280;9537;45.594;9.294;2023-04-24T05:40:52;98706.34;;;13.65;87.56
18819;BME280;9537;45.594;9.294;2023-04-24T05:41:58;98707.38;;;13.64;88.14
18819;BME280;9537;45.594;9.294;2023-04-24T05:43:07;98714.91;;;13.67;87.75
18819;BME280;9537;45.594;9.294;2023-04-24T05:44:12;98710.22;;;13.69;87.55
18819;BME280;9537;45.594;9.294;2023-04-24T05:45:20;98708.38;;;13.69;88.01
18819;BME280;9537;45.594;9.294;2023-04-24T05:46:27;98695.69;;;13.71;87.40
18819;BME280;9537;45.594;9.294;2023-04-24T05:47:34;98699.97;;;13.72;87.58
18819;BME280;9537;45.594;9.294;2023-04-24T05:48:41;98701.38;;;13.75;87.47
18819;BME280;9537;45.594;9.294;2023-04-24T05:49:47;98704.84;;;13.75;87.82
18819;BME280;9537;45.594;9.294;2023-04-24T05:50:54;98706.09;;;13.73;87.66
18819;BME280;9537;45.594;9.294;2023-04-24T05:52:00;98708.31;;;13.76;87.16
18819;BME280;9537;45.594;9.294;2023-04-24T05:53:09;98714.22;;;13.78;87.06
18819;BME280;9537;45.594;9.294;2023-04-24T05:54:16;98711.56;;;13.78;86.57
18819;BME280;9537;45.594;9.294;2023-04-24T05:55:23;98714.81;;;13.80;86.58
18819;BME280;9537;45.594;9.294;2023-04-24T05:56:29;98711.56;;;13.78;86.03
18819;BME280;9537;45.594;9.294;2023-04-24T05:57:36;98710.53;;;13.79;86.14
18819;BME280;9537;45.594;9.294;2023-04-24T05:58:43;98713.59;;;13.76;86.58